createdAt,value
2022-09-18T00:01:41.178Z,11.30
2022-09-18T00:04:13.754Z,11.30
2022-09-18T00:06:45.229Z,11.30
2022-09-18T00:09:15.778Z,11.40
2022-09-18T00:11:48.142Z,11.40
2022-09-18T00:14:19.241Z,11.40
2022-09-18T00:16:47.345Z,11.40
2022-09-18T00:19:17.090Z,11.40
2022-09-18T00:21:48.611Z,11.50
2022-09-18T00:24:17.765Z,11.40
2022-09-18T00:26:48.016Z,11.40
2022-09-18T00:29:17.865Z,11.50
2022-09-18T00:31:46.767Z,11.30
2022-09-18T00:34:16.902Z,11.10
2022-09-18T00:36:45.347Z,11.00
2022-09-18T00:39:14.538Z,11.00
2022-09-18T00:41:44.239Z,11.10
2022-09-18T00:44:38.972Z,11.30
2022-09-18T00:47:22.297Z,11.20
2022-09-18T00:49:56.244Z,11.20
2022-09-18T00:52:28.885Z,11.30
2022-09-18T00:55:02.169Z,11.10
2022-09-18T00:57:33.886Z,11.20
2022-09-18T01:00:09.809Z,11.20
2022-09-18T01:02:37.810Z,11.10
2022-09-18T01:05:06.877Z,11.00
2022-09-18T01:07:57.446Z,11.10
2022-09-18T01:10:41.143Z,10.90
2022-09-18T01:13:17.978Z,11.10
2022-09-18T01:15:52.884Z,11.10
2022-09-18T01:18:33.036Z,11.20
2022-09-18T01:21:21.009Z,11.30
2022-09-18T01:24:34.025Z,11.40
2022-09-18T01:27:05.426Z,11.50
2022-09-18T01:29:46.714Z,11.50
2022-09-18T01:32:23.554Z,11.50
2022-09-18T01:35:06.392Z,11.50
2022-09-18T01:37:46.532Z,11.50
2022-09-18T01:40:22.918Z,11.30
2022-09-18T01:42:53.700Z,11.40
2022-09-18T01:45:29.315Z,11.50
2022-09-18T01:48:01.688Z,11.30
2022-09-18T01:50:34.314Z,11.40
2022-09-18T01:53:08.747Z,11.30
2022-09-18T01:55:40.296Z,11.20
2022-09-18T01:58:12.959Z,11.20
2022-09-18T02:00:49.072Z,11.40
2022-09-18T02:03:23.026Z,11.30
2022-09-18T02:05:56.329Z,11.30
2022-09-18T02:08:32.390Z,11.30
2022-09-18T02:11:06.461Z,11.40
2022-09-18T02:13:42.879Z,11.30
2022-09-18T02:16:17.270Z,11.30
2022-09-18T02:18:50.897Z,11.40
2022-09-18T02:21:25.499Z,11.40
2022-09-18T02:23:56.170Z,11.40
2022-09-18T02:26:24.941Z,11.60
2022-09-18T02:28:54.459Z,11.60
2022-09-18T02:31:24.199Z,11.50
2022-09-18T02:33:54.808Z,11.50
2022-09-18T02:37:08.558Z,11.60
2022-09-18T02:39:58.119Z,11.50
2022-09-18T02:42:40.875Z,11.30
2022-09-18T02:45:20.548Z,11.40
2022-09-18T02:48:10.617Z,11.40
2022-09-18T02:50:49.068Z,11.50
2022-09-18T02:53:26.340Z,11.40
2022-09-18T02:56:02.420Z,11.40
2022-09-18T02:58:35.903Z,11.30
2022-09-18T03:01:06.367Z,11.40
2022-09-18T03:03:39.685Z,11.50
2022-09-18T03:06:08.913Z,11.50
2022-09-18T03:08:37.762Z,11.60
2022-09-18T03:11:06.582Z,11.70
2022-09-18T03:13:34.743Z,11.70
2022-09-18T03:16:03.353Z,11.70
2022-09-18T03:18:31.495Z,11.40
2022-09-18T03:21:00.823Z,11.40
2022-09-18T03:23:29.193Z,11.40
2022-09-18T03:25:57.714Z,11.50
2022-09-18T03:28:25.849Z,11.30
2022-09-18T03:30:54.159Z,11.30
2022-09-18T03:33:22.386Z,11.30
2022-09-18T03:35:50.566Z,11.30
2022-09-18T03:38:19.897Z,11.40
2022-09-18T03:40:48.452Z,11.30
2022-09-18T03:43:16.758Z,11.30
2022-09-18T03:45:44.883Z,11.40
2022-09-18T03:48:12.917Z,11.40
2022-09-18T03:50:40.968Z,11.50
2022-09-18T03:53:09.695Z,11.60
2022-09-18T03:55:39.077Z,11.70
2022-09-18T03:58:07.580Z,11.50
2022-09-18T04:00:36.053Z,11.50
2022-09-18T04:03:04.221Z,11.40
2022-09-18T04:05:32.353Z,11.40
2022-09-18T04:08:00.597Z,11.50
2022-09-18T04:10:29.426Z,11.60
2022-09-18T04:12:58.909Z,11.50
2022-09-18T04:15:28.864Z,11.50
2022-09-18T04:17:57.210Z,11.60
2022-09-18T04:20:25.255Z,11.70
2022-09-18T04:22:53.253Z,11.70
2022-09-18T04:25:22.784Z,11.80
2022-09-18T04:27:53.292Z,11.70
2022-09-18T04:30:23.137Z,11.60
2022-09-18T04:32:51.937Z,11.50
2022-09-18T04:35:20.677Z,11.60
2022-09-18T04:37:49.179Z,11.40
2022-09-18T04:40:17.856Z,11.50
2022-09-18T04:42:46.578Z,11.40
2022-09-18T04:45:14.749Z,11.40
2022-09-18T04:47:45.800Z,11.40
2022-09-18T04:50:13.972Z,11.30
2022-09-18T04:52:42.088Z,11.30
2022-09-18T04:55:11.410Z,11.20
2022-09-18T04:57:39.512Z,11.40
2022-09-18T05:00:09.602Z,11.40
2022-09-18T05:02:38.856Z,11.50
2022-09-18T05:05:09.506Z,11.50
2022-09-18T05:07:37.486Z,11.50
2022-09-18T05:10:08.587Z,11.60
2022-09-18T05:12:36.600Z,11.50
2022-09-18T05:15:05.961Z,11.70
2022-09-18T05:17:33.939Z,11.60
2022-09-18T05:20:02.158Z,11.70
2022-09-18T05:22:31.945Z,11.70
2022-09-18T05:24:59.927Z,11.70
2022-09-18T05:27:27.939Z,11.70
2022-09-18T05:29:55.896Z,11.70
2022-09-18T05:32:24.386Z,11.60
2022-09-18T05:34:52.378Z,11.60
2022-09-18T05:37:20.605Z,11.60
2022-09-18T05:39:49.931Z,11.70
2022-09-18T05:42:17.862Z,11.90
2022-09-18T05:44:45.856Z,12.00
2022-09-18T05:47:13.852Z,12.10
2022-09-18T05:49:41.815Z,12.10
2022-09-18T05:52:09.708Z,12.10
2022-09-18T05:54:37.712Z,12.10
2022-09-18T05:57:07.153Z,12.10
2022-09-18T05:59:35.086Z,12.20
2022-09-18T06:02:03.292Z,12.30
2022-09-18T06:04:31.332Z,12.20
2022-09-18T06:07:00.733Z,12.20
2022-09-18T06:09:28.684Z,12.20
2022-09-18T06:11:56.641Z,12.20
2022-09-18T06:14:26.008Z,12.10
2022-09-18T06:16:55.476Z,12.20
2022-09-18T06:19:23.569Z,12.00
2022-09-18T06:21:51.541Z,11.90
2022-09-18T06:24:19.518Z,12.10
2022-09-18T06:26:49.785Z,12.20
2022-09-18T06:29:17.779Z,12.30
2022-09-18T06:31:47.115Z,12.00
2022-09-18T06:34:15.119Z,12.20
2022-09-18T06:36:44.130Z,12.20
2022-09-18T06:39:12.132Z,12.30
2022-09-18T06:41:40.107Z,12.30
2022-09-18T06:44:08.263Z,12.30
2022-09-18T06:46:37.915Z,12.30
2022-09-18T06:49:07.263Z,12.30
2022-09-18T06:51:35.229Z,12.30
2022-09-18T06:54:03.323Z,12.30
2022-09-18T06:56:31.388Z,12.40
2022-09-18T06:58:59.326Z,12.40
2022-09-18T07:01:27.373Z,12.50
2022-09-18T07:03:55.394Z,12.50
2022-09-18T07:06:24.931Z,12.60
2022-09-18T07:08:53.064Z,12.50
2022-09-18T07:11:21.138Z,12.60
2022-09-18T07:13:51.533Z,12.70
2022-09-18T07:16:19.568Z,12.70
2022-09-18T07:18:49.364Z,12.70
2022-09-18T07:21:17.380Z,12.70
2022-09-18T07:23:46.741Z,12.60
2022-09-18T07:26:14.680Z,12.60
2022-09-18T07:28:42.674Z,12.60
2022-09-18T07:31:10.661Z,12.70
2022-09-18T07:33:40.401Z,12.70
2022-09-18T07:36:08.573Z,12.70
2022-09-18T07:38:37.436Z,12.80
2022-09-18T07:41:07.005Z,12.90
2022-09-18T07:43:35.082Z,13.00
2022-09-18T07:46:03.575Z,13.10
2022-09-18T07:48:31.572Z,13.20
2022-09-18T07:51:00.004Z,13.20
2022-09-18T07:53:29.390Z,13.30
2022-09-18T07:55:57.575Z,13.30
2022-09-18T07:58:27.844Z,13.40
2022-09-18T08:00:56.990Z,13.50
2022-09-18T08:03:25.418Z,13.50
2022-09-18T08:05:54.545Z,13.30
2022-09-18T08:08:22.655Z,13.40
2022-09-18T08:10:50.712Z,13.60
2022-09-18T08:13:18.712Z,13.50
2022-09-18T08:15:48.196Z,13.50
2022-09-18T08:18:17.075Z,13.70
2022-09-18T08:20:45.212Z,13.70
2022-09-18T08:23:13.448Z,13.80
2022-09-18T08:25:42.133Z,13.80
2022-09-18T08:28:11.185Z,13.70
2022-09-18T08:30:39.203Z,13.80
2022-09-18T08:33:09.981Z,13.80
2022-09-18T08:35:38.303Z,14.00
2022-09-18T08:38:06.646Z,13.80
2022-09-18T08:40:58.646Z,13.60
2022-09-18T08:43:47.479Z,13.20
2022-09-18T08:46:21.309Z,13.10
2022-09-18T08:49:00.769Z,13.30
2022-09-18T08:51:34.838Z,13.00
2022-09-18T08:54:20.713Z,13.30
2022-09-18T08:56:49.199Z,13.50
2022-09-18T08:59:26.506Z,13.80
2022-09-18T09:02:15.046Z,14.10
2022-09-18T09:04:45.061Z,14.10
2022-09-18T09:07:34.423Z,14.40
2022-09-18T09:10:25.432Z,14.50
2022-09-18T09:13:12.112Z,14.50
2022-09-18T09:15:46.283Z,14.60
2022-09-18T09:18:18.991Z,14.90
2022-09-18T09:20:54.603Z,15.10
2022-09-18T09:23:43.762Z,15.10
2022-09-18T09:26:16.548Z,15.10
2022-09-18T09:28:57.346Z,15.00
2022-09-18T09:31:33.231Z,15.30
2022-09-18T09:34:07.223Z,15.60
2022-09-18T09:36:37.934Z,15.90
2022-09-18T09:39:15.223Z,16.00
2022-09-18T09:41:47.928Z,16.10
2022-09-18T09:44:32.059Z,16.10
2022-09-18T09:47:16.862Z,15.60
2022-09-18T09:49:58.219Z,15.70
2022-09-18T09:52:29.499Z,15.50
2022-09-18T09:55:01.575Z,15.50
2022-09-18T09:57:39.938Z,15.60
2022-09-18T10:00:15.237Z,15.60
2022-09-18T10:03:05.178Z,15.40
2022-09-18T10:05:39.733Z,15.30
2022-09-18T10:08:20.319Z,15.00
2022-09-18T10:10:53.658Z,14.90
2022-09-18T10:13:25.682Z,14.80
2022-09-18T10:16:01.726Z,15.00
2022-09-18T10:18:34.980Z,15.00
2022-09-18T10:21:08.760Z,14.60
2022-09-18T10:23:41.124Z,14.50
2022-09-18T10:26:15.212Z,14.70
2022-09-18T10:28:43.851Z,14.50
2022-09-18T10:31:13.775Z,14.50
2022-09-18T10:33:44.304Z,14.40
2022-09-18T10:36:30.694Z,14.20
2022-09-18T10:39:01.439Z,14.40
2022-09-18T10:41:37.046Z,14.20
2022-09-18T10:44:25.279Z,14.00
2022-09-18T10:46:58.979Z,13.90
2022-09-18T10:49:32.486Z,14.00
2022-09-18T10:52:27.122Z,14.00
2022-09-18T10:55:18.864Z,14.10
2022-09-18T10:58:03.939Z,14.30
2022-09-18T11:00:50.165Z,14.20
2022-09-18T11:03:37.573Z,14.40
2022-09-18T11:06:10.196Z,14.40
2022-09-18T11:08:43.858Z,14.50
2022-09-18T11:11:22.853Z,14.50
2022-09-18T11:13:58.826Z,14.40
2022-09-18T11:16:29.865Z,14.40
2022-09-18T11:19:10.273Z,14.30
2022-09-18T11:21:46.249Z,14.40
2022-09-18T11:24:23.870Z,14.40
2022-09-18T11:26:54.756Z,14.40
2022-09-18T11:29:34.644Z,14.30
2022-09-18T11:32:17.567Z,14.40
2022-09-18T11:34:50.547Z,14.40
2022-09-18T11:37:30.748Z,14.10
2022-09-18T11:40:05.179Z,14.00
2022-09-18T11:42:35.161Z,14.10
2022-09-18T11:45:26.638Z,14.00
2022-09-18T11:47:59.750Z,14.30
2022-09-18T11:50:33.428Z,14.40
2022-09-18T11:53:07.836Z,14.60
2022-09-18T11:55:41.360Z,14.50
2022-09-18T11:58:17.978Z,14.70
2022-09-18T12:00:51.089Z,14.40
2022-09-18T12:03:25.815Z,14.50
2022-09-18T12:05:57.267Z,14.60
2022-09-18T12:08:38.157Z,14.70
2022-09-18T12:11:17.481Z,14.60
2022-09-18T12:14:02.354Z,14.80
2022-09-18T12:16:45.777Z,14.70
2022-09-18T12:19:19.717Z,14.60
2022-09-18T12:21:57.588Z,14.70
2022-09-18T12:24:26.066Z,14.70
2022-09-18T12:27:07.748Z,14.60
2022-09-18T12:29:53.133Z,14.50
2022-09-18T12:32:46.789Z,14.60
2022-09-18T12:35:24.255Z,14.50
2022-09-18T12:38:09.021Z,14.50
2022-09-18T12:41:02.995Z,14.60
2022-09-18T12:44:01.199Z,14.70
2022-09-18T12:46:47.551Z,14.50
2022-09-18T12:49:34.865Z,14.40
2022-09-18T12:52:15.437Z,14.60
2022-09-18T12:55:06.115Z,14.60
2022-09-18T12:57:48.133Z,14.70
2022-09-18T13:00:18.522Z,14.80
2022-09-18T13:02:55.663Z,14.70
2022-09-18T13:05:30.538Z,14.70
2022-09-18T13:08:05.025Z,14.80
2022-09-18T13:10:38.529Z,15.00
2022-09-18T13:13:15.177Z,15.10
2022-09-18T13:15:49.501Z,14.90
2022-09-18T13:18:30.812Z,15.10
2022-09-18T13:21:01.652Z,15.30
2022-09-18T13:23:33.938Z,15.00
2022-09-18T13:26:05.913Z,15.20
2022-09-18T13:28:34.508Z,15.20
2022-09-18T13:31:27.727Z,15.40
2022-09-18T13:34:00.362Z,15.50
2022-09-18T13:36:32.013Z,15.40
2022-09-18T13:39:03.751Z,15.50
2022-09-18T13:41:44.882Z,15.50
2022-09-18T13:44:21.112Z,15.40
2022-09-18T13:46:51.331Z,15.40
2022-09-18T13:49:28.643Z,15.30
2022-09-18T13:51:57.544Z,15.30
2022-09-18T13:54:29.189Z,15.30
2022-09-18T13:57:21.520Z,15.20
2022-09-18T13:59:54.730Z,15.00
2022-09-18T14:02:35.269Z,15.00
2022-09-18T14:05:31.028Z,15.10
2022-09-18T14:08:11.657Z,15.10
2022-09-18T14:11:15.795Z,15.20
2022-09-18T14:13:51.353Z,15.10
2022-09-18T14:16:40.725Z,15.00
2022-09-18T14:19:40.305Z,15.20
2022-09-18T14:22:25.447Z,15.10
2022-09-18T14:25:03.170Z,14.90
2022-09-18T14:27:53.465Z,14.80
2022-09-18T14:30:24.728Z,14.70
2022-09-18T14:33:04.909Z,14.80
2022-09-18T14:35:44.914Z,14.90
2022-09-18T14:38:28.015Z,14.90
2022-09-18T14:41:05.815Z,14.90
2022-09-18T14:43:33.978Z,14.80
2022-09-18T14:46:02.084Z,14.90
2022-09-18T14:48:34.767Z,14.70
2022-09-18T14:51:06.939Z,14.60
2022-09-18T14:53:44.891Z,14.80
2022-09-18T14:56:18.458Z,14.80
2022-09-18T14:58:50.382Z,14.90
2022-09-18T15:01:25.497Z,14.90
2022-09-18T15:03:56.402Z,14.70
2022-09-18T15:06:28.825Z,14.60
2022-09-18T15:08:58.689Z,14.50
2022-09-18T15:11:37.776Z,14.70
2022-09-18T15:14:22.086Z,14.50
2022-09-18T15:16:56.969Z,14.10
2022-09-18T15:19:25.255Z,14.40
2022-09-18T15:21:54.233Z,14.30
2022-09-18T15:24:24.370Z,14.40
2022-09-18T15:26:56.380Z,14.50
2022-09-18T15:29:30.894Z,14.30
2022-09-18T15:31:59.758Z,14.40
2022-09-18T15:34:31.190Z,14.40
2022-09-18T15:37:01.713Z,14.20
2022-09-18T15:39:35.027Z,14.20
2022-09-18T15:42:28.606Z,14.10
2022-09-18T15:45:19.310Z,14.10
2022-09-18T15:47:48.079Z,14.20
2022-09-18T15:50:41.617Z,13.90
2022-09-18T15:53:29.241Z,14.00
2022-09-18T15:56:06.489Z,14.00
2022-09-18T15:58:43.309Z,14.10
2022-09-18T16:01:24.985Z,13.80
2022-09-18T16:04:08.558Z,13.70
2022-09-18T16:06:49.737Z,13.70
2022-09-18T16:09:37.258Z,13.70
2022-09-18T16:12:35.833Z,13.80
2022-09-18T16:15:23.076Z,13.70
2022-09-18T16:18:03.837Z,13.70
2022-09-18T16:20:40.027Z,13.80
2022-09-18T16:23:20.730Z,13.60
2022-09-18T16:26:08.637Z,13.40
2022-09-18T16:28:42.891Z,13.40
2022-09-18T16:31:13.031Z,13.30
2022-09-18T16:33:55.191Z,13.20
2022-09-18T16:36:31.076Z,13.30
2022-09-18T16:39:01.654Z,13.50
2022-09-18T16:41:30.556Z,13.30
2022-09-18T16:44:00.599Z,13.00
2022-09-18T16:46:35.073Z,12.90
2022-09-18T16:49:03.335Z,12.90
2022-09-18T16:51:31.873Z,12.80
2022-09-18T16:54:00.092Z,12.80
2022-09-18T16:56:33.303Z,12.80
2022-09-18T16:59:04.707Z,12.80
2022-09-18T17:01:54.260Z,12.90
2022-09-18T17:04:24.692Z,12.80
2022-09-18T17:06:53.225Z,12.80
2022-09-18T17:09:23.830Z,12.70
2022-09-18T17:11:52.165Z,12.50
2022-09-18T17:14:22.691Z,12.50
2022-09-18T17:16:50.963Z,12.50
2022-09-18T17:19:20.011Z,12.60
2022-09-18T17:21:48.952Z,12.70
2022-09-18T17:24:17.804Z,12.60
2022-09-18T17:26:46.134Z,12.50
2022-09-18T17:29:14.398Z,12.40
2022-09-18T17:31:44.717Z,12.30
2022-09-18T17:34:13.347Z,12.20
2022-09-18T17:36:41.652Z,12.40
2022-09-18T17:39:10.398Z,12.60
2022-09-18T17:41:38.992Z,12.80
2022-09-18T17:44:07.177Z,12.80
2022-09-18T17:46:35.147Z,12.60
2022-09-18T17:49:05.805Z,12.40
2022-09-18T17:51:34.133Z,12.40
2022-09-18T17:54:05.531Z,12.40
2022-09-18T17:56:34.962Z,12.30
2022-09-18T17:59:11.148Z,12.10
2022-09-18T18:01:43.394Z,12.30
2022-09-18T18:04:13.812Z,12.30
2022-09-18T18:06:42.200Z,12.40
2022-09-18T18:09:13.191Z,12.20
2022-09-18T18:11:42.771Z,12.10
2022-09-18T18:14:10.878Z,12.20
2022-09-18T18:16:41.306Z,12.10
2022-09-18T18:19:12.854Z,12.20
2022-09-18T18:21:43.205Z,12.30
2022-09-18T18:24:15.213Z,12.30
2022-09-18T18:26:44.297Z,12.20
2022-09-18T18:29:14.797Z,12.10
2022-09-18T18:31:44.452Z,12.30
2022-09-18T18:34:14.064Z,12.20
2022-09-18T18:36:43.605Z,12.20
2022-09-18T18:39:14.589Z,12.10
2022-09-18T18:41:44.799Z,12.10
2022-09-18T18:44:13.342Z,12.10
2022-09-18T18:46:41.897Z,12.10
2022-09-18T18:49:14.849Z,12.10
2022-09-18T18:51:45.928Z,12.00
2022-09-18T18:54:14.982Z,12.00
2022-09-18T18:56:43.291Z,12.00
2022-09-18T18:59:14.395Z,11.80
2022-09-18T19:01:43.347Z,11.40
2022-09-18T19:04:14.976Z,11.50
2022-09-18T19:06:45.094Z,11.40
2022-09-18T19:09:19.831Z,11.30
2022-09-18T19:11:49.282Z,11.40
2022-09-18T19:14:22.162Z,11.50
2022-09-18T19:16:51.210Z,11.60
2022-09-18T19:19:24.435Z,11.60
2022-09-18T19:21:53.017Z,11.40
2022-09-18T19:24:21.877Z,11.30
2022-09-18T19:26:50.692Z,11.30
2022-09-18T19:29:21.803Z,11.10
2022-09-18T19:31:51.130Z,11.30
2022-09-18T19:34:22.494Z,11.10
2022-09-18T19:36:52.008Z,10.80
2022-09-18T19:39:23.868Z,10.70
2022-09-18T19:41:59.197Z,10.40
2022-09-18T19:44:32.829Z,10.60
2022-09-18T19:47:05.548Z,10.60
2022-09-18T19:49:39.293Z,10.40
2022-09-18T19:52:18.178Z,10.40
2022-09-18T19:54:46.470Z,10.40
2022-09-18T19:57:15.168Z,10.30
2022-09-18T19:59:45.596Z,10.30
2022-09-18T20:02:17.334Z,10.20
2022-09-18T20:04:50.076Z,10.20
2022-09-18T20:07:18.276Z,10.10
2022-09-18T20:09:48.786Z,10.10
2022-09-18T20:12:16.945Z,10.20
2022-09-18T20:14:45.424Z,10.20
2022-09-18T20:17:13.767Z,10.20
2022-09-18T20:19:42.062Z,10.00
2022-09-18T20:22:11.536Z,9.90
2022-09-18T20:24:40.554Z,10.00
2022-09-18T20:27:08.643Z,10.10
2022-09-18T20:29:36.613Z,10.00
2022-09-18T20:32:04.938Z,10.10
2022-09-18T20:34:33.188Z,10.00
2022-09-18T20:37:02.848Z,9.90
2022-09-18T20:39:33.193Z,10.00
2022-09-18T20:42:01.462Z,10.10
2022-09-18T20:44:30.169Z,10.30
2022-09-18T20:46:58.445Z,10.20
2022-09-18T20:49:27.151Z,10.30
2022-09-18T20:51:55.375Z,10.20
2022-09-18T20:54:24.354Z,10.10
2022-09-18T20:56:54.352Z,9.90
2022-09-18T20:59:23.931Z,10.10
2022-09-18T21:01:53.161Z,10.20
2022-09-18T21:04:22.478Z,10.10
2022-09-18T21:06:56.090Z,9.80
2022-09-18T21:09:27.685Z,9.60
2022-09-18T21:11:57.302Z,9.40
2022-09-18T21:14:27.419Z,9.40
2022-09-18T21:16:55.948Z,9.40
2022-09-18T21:19:26.000Z,9.50
2022-09-18T21:21:54.156Z,9.40
2022-09-18T21:24:22.366Z,9.50
2022-09-18T21:26:51.270Z,9.30
2022-09-18T21:29:23.225Z,9.40
2022-09-18T21:31:54.090Z,9.50
2022-09-18T21:34:24.567Z,9.50
2022-09-18T21:36:57.500Z,9.40
2022-09-18T21:39:28.045Z,9.40
2022-09-18T21:41:57.416Z,9.20
2022-09-18T21:44:29.139Z,9.40
2022-09-18T21:46:59.384Z,9.50
2022-09-18T21:49:29.013Z,9.60
2022-09-18T21:51:59.115Z,9.50
2022-09-18T21:54:28.373Z,9.50
2022-09-18T21:56:56.620Z,9.60
2022-09-18T21:59:30.860Z,9.40
2022-09-18T22:02:06.627Z,9.30
2022-09-18T22:04:34.683Z,9.20
2022-09-18T22:07:03.236Z,9.10
2022-09-18T22:09:34.349Z,9.10
2022-09-18T22:12:03.409Z,9.10
2022-09-18T22:14:35.081Z,9.20
2022-09-18T22:17:05.615Z,9.20
2022-09-18T22:19:38.003Z,9.10
2022-09-18T22:22:08.906Z,8.90
2022-09-18T22:24:37.011Z,8.90
2022-09-18T22:27:08.423Z,8.80
2022-09-18T22:29:41.048Z,8.60
2022-09-18T22:32:10.012Z,8.50
2022-09-18T22:34:38.192Z,8.50
2022-09-18T22:37:07.845Z,8.70
2022-09-18T22:39:35.826Z,8.80
2022-09-18T22:42:03.850Z,8.80
2022-09-18T22:44:31.834Z,9.00
2022-09-18T22:47:02.124Z,8.90
2022-09-18T22:49:30.140Z,8.90
2022-09-18T22:51:58.293Z,9.00
2022-09-18T22:54:27.554Z,9.10
2022-09-18T22:56:56.843Z,9.10
2022-09-18T22:59:28.436Z,9.20
2022-09-18T23:02:00.481Z,9.10
2022-09-18T23:04:31.568Z,8.80
2022-09-18T23:07:00.392Z,8.80
2022-09-18T23:09:29.168Z,8.80
2022-09-18T23:11:58.789Z,8.70
2022-09-18T23:14:29.743Z,8.70
2022-09-18T23:17:01.059Z,8.60
2022-09-18T23:19:30.858Z,8.50
2022-09-18T23:21:59.057Z,8.40
2022-09-18T23:24:27.837Z,8.40
2022-09-18T23:26:58.696Z,8.30
2022-09-18T23:29:28.470Z,8.20
2022-09-18T23:31:57.425Z,8.10
2022-09-18T23:34:30.858Z,7.90
2022-09-18T23:36:59.615Z,7.80
2022-09-18T23:39:30.809Z,7.90
2022-09-18T23:42:01.371Z,7.70
2022-09-18T23:44:30.930Z,7.70
2022-09-18T23:46:59.331Z,7.60
2022-09-18T23:49:29.736Z,7.60
2022-09-18T23:51:59.321Z,7.60
2022-09-18T23:54:29.526Z,7.70
2022-09-18T23:56:58.019Z,7.80
2022-09-18T23:59:27.711Z,8.00
